createdAt,value
2022-08-28T00:02:04.251Z,73.71
2022-08-28T00:04:56.557Z,73.75
2022-08-28T00:07:49.390Z,73.36
2022-08-28T00:10:42.686Z,73.07
2022-08-28T00:13:34.845Z,73.19
2022-08-28T00:16:27.649Z,72.76
2022-08-28T00:19:20.772Z,72.63
2022-08-28T00:22:12.837Z,72.48
2022-08-28T00:25:09.392Z,72.29
2022-08-28T00:28:10.376Z,72.00
2022-08-28T00:31:02.882Z,71.71
2022-08-28T00:33:54.935Z,71.45
2022-08-28T00:36:46.901Z,71.41
2022-08-28T00:39:31.216Z,71.38
2022-08-28T00:42:17.265Z,71.26
2022-08-28T00:45:13.265Z,71.06
2022-08-28T00:48:05.931Z,70.90
2022-08-28T00:51:01.678Z,71.24
2022-08-28T00:53:58.770Z,71.21
2022-08-28T00:56:52.125Z,70.97
2022-08-28T00:59:45.216Z,70.85
2022-08-28T01:02:40.246Z,71.06
2022-08-28T01:05:27.438Z,71.09
2022-08-28T01:08:13.801Z,71.16
2022-08-28T01:11:01.187Z,71.03
2022-08-28T01:13:56.954Z,71.12
2022-08-28T01:16:56.336Z,70.93
2022-08-28T01:19:57.257Z,70.89
2022-08-28T01:22:57.470Z,71.10
2022-08-28T01:25:49.681Z,70.87
2022-08-28T01:28:42.402Z,70.95
2022-08-28T01:31:29.094Z,71.19
2022-08-28T01:34:23.662Z,71.51
2022-08-28T01:37:15.725Z,71.86
2022-08-28T01:40:10.510Z,71.98
2022-08-28T01:43:11.962Z,71.96
2022-08-28T01:46:06.362Z,72.10
2022-08-28T01:48:51.590Z,72.18
2022-08-28T01:51:44.847Z,72.10
2022-08-28T01:54:37.050Z,72.02
2022-08-28T01:57:31.161Z,72.22
2022-08-28T02:00:27.022Z,72.33
2022-08-28T02:03:19.059Z,72.43
2022-08-28T02:06:12.391Z,72.58
2022-08-28T02:09:05.330Z,72.69
2022-08-28T02:11:57.536Z,72.65
2022-08-28T02:14:49.654Z,72.62
2022-08-28T02:17:42.051Z,72.67
2022-08-28T02:20:35.063Z,72.41
2022-08-28T02:23:27.206Z,72.45
2022-08-28T02:26:20.994Z,72.64
2022-08-28T02:29:13.404Z,72.74
2022-08-28T02:32:06.337Z,72.86
2022-08-28T02:34:58.621Z,72.85
2022-08-28T02:37:50.896Z,72.89
2022-08-28T02:40:47.188Z,72.77
2022-08-28T02:43:39.369Z,73.07
2022-08-28T02:46:33.065Z,73.14
2022-08-28T02:49:25.145Z,72.98
2022-08-28T02:52:24.821Z,72.81
2022-08-28T02:55:19.632Z,72.74
2022-08-28T02:58:06.857Z,72.54
2022-08-28T03:00:52.006Z,72.55
2022-08-28T03:03:44.561Z,72.70
2022-08-28T03:06:36.665Z,72.49
2022-08-28T03:09:28.888Z,72.61
2022-08-28T03:12:24.136Z,72.63
2022-08-28T03:15:17.251Z,72.89
2022-08-28T03:18:11.286Z,73.04
2022-08-28T03:20:53.557Z,73.28
2022-08-28T03:23:45.622Z,73.31
2022-08-28T03:26:20.368Z,73.40
2022-08-28T03:28:55.371Z,73.16
2022-08-28T03:31:48.773Z,73.19
2022-08-28T03:34:41.194Z,73.40
2022-08-28T03:37:33.222Z,73.56
2022-08-28T03:40:25.580Z,73.73
2022-08-28T03:43:20.691Z,74.03
2022-08-28T03:46:04.826Z,74.11
2022-08-28T03:48:57.485Z,74.19
2022-08-28T03:51:49.557Z,74.18
2022-08-28T03:54:41.726Z,74.45
2022-08-28T03:57:26.923Z,74.47
2022-08-28T04:00:20.846Z,74.22
2022-08-28T04:03:13.713Z,74.40
2022-08-28T04:06:06.237Z,74.92
2022-08-28T04:08:51.927Z,74.85
2022-08-28T04:11:44.926Z,75.03
2022-08-28T04:14:37.551Z,75.26
2022-08-28T04:17:30.482Z,75.16
2022-08-28T04:20:22.711Z,75.08
2022-08-28T04:23:14.701Z,74.80
2022-08-28T04:26:09.054Z,75.16
2022-08-28T04:29:01.061Z,75.28
2022-08-28T04:31:53.143Z,75.35
2022-08-28T04:34:45.364Z,75.75
2022-08-28T04:37:37.641Z,75.82
2022-08-28T04:40:29.826Z,75.50
2022-08-28T04:43:22.396Z,75.16
2022-08-28T04:46:16.478Z,75.56
2022-08-28T04:49:08.914Z,75.62
2022-08-28T04:52:00.920Z,75.28
2022-08-28T04:54:52.979Z,74.89
2022-08-28T04:57:46.331Z,74.82
2022-08-28T05:00:39.335Z,74.99
2022-08-28T05:03:33.632Z,74.62
2022-08-28T05:06:28.095Z,74.43
2022-08-28T05:09:21.673Z,74.64
2022-08-28T05:12:17.462Z,74.08
2022-08-28T05:15:11.670Z,73.96
2022-08-28T05:17:53.603Z,73.67
2022-08-28T05:20:47.841Z,73.04
2022-08-28T05:23:39.792Z,72.46
2022-08-28T05:26:31.863Z,72.26
2022-08-28T05:29:17.817Z,72.00
2022-08-28T05:32:09.937Z,71.46
2022-08-28T05:35:01.937Z,71.15
2022-08-28T05:37:55.351Z,71.26
2022-08-28T05:40:47.934Z,71.04
2022-08-28T05:43:39.879Z,70.94
2022-08-28T05:46:32.595Z,70.85
2022-08-28T05:49:24.898Z,70.82
2022-08-28T05:52:16.977Z,70.94
2022-08-28T05:55:11.176Z,70.85
2022-08-28T05:58:23.150Z,70.44
2022-08-28T06:01:18.582Z,69.72
2022-08-28T06:04:14.589Z,69.01
2022-08-28T06:07:07.089Z,68.30
2022-08-28T06:09:59.081Z,68.06
2022-08-28T06:12:51.063Z,67.50
2022-08-28T06:15:45.832Z,67.25
2022-08-28T06:18:38.108Z,67.48
2022-08-28T06:21:30.726Z,67.19
2022-08-28T06:24:22.264Z,66.32
2022-08-28T06:27:14.246Z,66.19
2022-08-28T06:30:08.063Z,65.30
2022-08-28T06:32:59.148Z,65.35
2022-08-28T06:35:31.345Z,65.28
2022-08-28T06:38:13.598Z,65.12
2022-08-28T06:41:10.247Z,64.71
2022-08-28T06:44:02.620Z,64.89
2022-08-28T06:46:56.277Z,65.26
2022-08-28T06:49:48.278Z,65.03
2022-08-28T06:52:33.193Z,64.68
2022-08-28T06:55:26.508Z,64.85
2022-08-28T06:58:18.753Z,64.83
2022-08-28T07:01:14.358Z,64.64
2022-08-28T07:04:09.125Z,64.27
2022-08-28T07:06:54.748Z,63.92
2022-08-28T07:09:47.417Z,64.01
2022-08-28T07:12:40.238Z,64.14
2022-08-28T07:15:31.200Z,63.60
2022-08-28T07:18:23.500Z,62.92
2022-08-28T07:21:12.346Z,62.82
2022-08-28T07:24:05.410Z,62.56
2022-08-28T07:26:57.969Z,62.36
2022-08-28T07:29:50.998Z,61.49
2022-08-28T07:32:43.582Z,60.45
2022-08-28T07:35:35.589Z,60.38
2022-08-28T07:38:27.903Z,59.70
2022-08-28T07:41:22.342Z,59.77
2022-08-28T07:44:33.577Z,59.65
2022-08-28T07:47:26.021Z,59.29
2022-08-28T07:50:18.120Z,59.34
2022-08-28T07:53:10.103Z,59.38
2022-08-28T07:56:02.904Z,59.63
2022-08-28T07:58:48.052Z,59.21
2022-08-28T08:01:42.002Z,59.16
2022-08-28T08:04:34.074Z,58.98
2022-08-28T08:07:26.048Z,58.51
2022-08-28T08:10:19.918Z,58.49
2022-08-28T08:13:12.749Z,58.81
2022-08-28T08:16:07.429Z,58.33
2022-08-28T08:19:00.527Z,58.85
2022-08-28T08:21:54.697Z,58.60
2022-08-28T08:24:47.422Z,58.31
2022-08-28T08:27:42.938Z,58.45
2022-08-28T08:30:35.191Z,58.95
2022-08-28T08:33:28.242Z,58.42
2022-08-28T08:36:22.524Z,56.99
2022-08-28T08:39:14.527Z,57.42
2022-08-28T08:42:19.616Z,57.13
2022-08-28T08:45:15.230Z,57.71
2022-08-28T08:48:11.507Z,56.48
2022-08-28T08:50:54.158Z,54.07
2022-08-28T08:53:54.212Z,52.87
2022-08-28T08:56:40.056Z,53.17
2022-08-28T08:59:36.892Z,53.36
2022-08-28T09:02:35.383Z,53.92
2022-08-28T09:05:23.472Z,54.01
2022-08-28T09:08:25.325Z,55.11
2022-08-28T09:11:31.740Z,54.86
2022-08-28T09:14:33.894Z,54.04
2022-08-28T09:17:32.640Z,52.04
2022-08-28T09:20:33.154Z,49.85
2022-08-28T09:23:15.403Z,48.64
2022-08-28T09:26:12.894Z,49.34
2022-08-28T09:29:04.844Z,49.32
2022-08-28T09:31:57.096Z,48.13
2022-08-28T09:35:09.481Z,46.43
2022-08-28T09:38:20.174Z,47.19
2022-08-28T09:41:36.805Z,47.46
2022-08-28T09:44:27.376Z,45.30
2022-08-28T09:47:46.503Z,44.93
2022-08-28T09:50:42.458Z,45.10
2022-08-28T09:53:37.839Z,46.72
2022-08-28T09:56:33.570Z,47.40
2022-08-28T09:59:28.810Z,45.82
2022-08-28T10:02:32.918Z,45.44
2022-08-28T10:05:38.648Z,43.63
2022-08-28T10:08:44.900Z,41.98
2022-08-28T10:11:45.837Z,39.56
2022-08-28T10:14:53.923Z,40.62
2022-08-28T10:17:36.207Z,41.71
2022-08-28T10:20:25.656Z,41.72
2022-08-28T10:23:27.630Z,41.27
2022-08-28T10:26:35.297Z,41.93
2022-08-28T10:29:40.273Z,41.75
2022-08-28T10:32:55.686Z,40.75
2022-08-28T10:35:57.276Z,40.84
2022-08-28T10:38:54.833Z,40.99
2022-08-28T10:41:51.956Z,40.04
2022-08-28T10:44:53.459Z,38.58
2022-08-28T10:47:29.544Z,36.13
2022-08-28T10:50:24.665Z,36.71
2022-08-28T10:53:15.071Z,37.86
2022-08-28T10:56:14.502Z,37.56
2022-08-28T10:58:59.992Z,38.06
2022-08-28T11:01:53.343Z,38.01
2022-08-28T11:04:47.502Z,38.49
2022-08-28T11:07:30.115Z,38.57
2022-08-28T11:10:41.791Z,38.56
2022-08-28T11:13:48.699Z,38.28
2022-08-28T11:16:46.106Z,38.53
2022-08-28T11:20:13.625Z,38.79
2022-08-28T11:23:16.073Z,38.51
2022-08-28T11:26:07.767Z,38.26
2022-08-28T11:28:59.796Z,37.89
2022-08-28T11:32:25.252Z,37.02
2022-08-28T11:35:45.485Z,37.37
2022-08-28T11:39:14.069Z,36.76
2022-08-28T11:42:38.918Z,37.02
2022-08-28T11:46:11.958Z,36.53
2022-08-28T11:48:52.143Z,36.55
2022-08-28T11:52:04.902Z,36.71
2022-08-28T11:55:07.041Z,36.35
2022-08-28T12:01:08.299Z,35.94
2022-08-28T12:04:01.927Z,35.86
2022-08-28T12:07:24.080Z,35.59
2022-08-28T12:10:46.642Z,35.02
2022-08-28T12:13:52.167Z,34.77
2022-08-28T12:20:17.343Z,36.68
2022-08-28T12:23:42.918Z,36.01
2022-08-28T12:26:38.752Z,34.90
2022-08-28T12:29:39.917Z,35.24
2022-08-28T12:32:35.817Z,34.04
2022-08-28T12:35:31.149Z,32.73
2022-08-28T12:38:24.705Z,33.16
2022-08-28T12:41:21.008Z,34.05
2022-08-28T12:44:15.704Z,34.56
2022-08-28T12:47:02.731Z,34.36
2022-08-28T12:49:54.961Z,34.23
2022-08-28T12:52:52.794Z,34.20
2022-08-28T12:55:44.701Z,34.28
2022-08-28T12:58:40.949Z,33.87
2022-08-28T13:01:35.602Z,34.11
2022-08-28T13:04:32.979Z,34.36
2022-08-28T13:07:30.643Z,34.29
2022-08-28T13:10:26.048Z,33.92
2022-08-28T13:13:25.157Z,33.48
2022-08-28T13:16:38.216Z,34.18
2022-08-28T13:19:31.939Z,34.02
2022-08-28T13:22:40.580Z,34.49
2022-08-28T13:25:35.564Z,34.77
2022-08-28T13:28:28.381Z,34.91
2022-08-28T13:31:30.244Z,34.40
2022-08-28T13:34:27.085Z,34.03
2022-08-28T13:37:55.268Z,34.77
2022-08-28T13:40:59.792Z,34.36
2022-08-28T13:43:52.360Z,33.57
2022-08-28T13:46:44.472Z,33.73
2022-08-28T13:49:36.838Z,34.30
2022-08-28T13:52:29.122Z,34.12
2022-08-28T13:55:22.027Z,33.26
2022-08-28T13:58:16.123Z,33.34
2022-08-28T14:01:11.442Z,33.44
2022-08-28T14:04:03.936Z,32.82
2022-08-28T14:06:56.022Z,33.19
2022-08-28T14:09:50.922Z,32.36
2022-08-28T14:12:47.824Z,32.52
2022-08-28T14:15:40.050Z,32.28
2022-08-28T14:18:32.288Z,32.36
2022-08-28T14:21:25.343Z,32.49
2022-08-28T14:24:18.083Z,32.72
2022-08-28T14:26:55.616Z,32.68
2022-08-28T14:29:49.155Z,32.67
2022-08-28T14:32:31.661Z,32.62
2022-08-28T14:35:23.840Z,32.74
2022-08-28T14:38:16.347Z,32.70
2022-08-28T14:41:12.469Z,32.99
2022-08-28T14:44:05.980Z,33.45
2022-08-28T14:46:58.316Z,33.59
2022-08-28T14:49:50.555Z,33.44
2022-08-28T14:52:44.002Z,33.31
2022-08-28T14:55:42.047Z,33.00
2022-08-28T14:58:25.186Z,33.56
2022-08-28T15:01:26.564Z,33.74
2022-08-28T15:04:37.776Z,34.63
2022-08-28T15:07:31.987Z,35.36
2022-08-28T15:10:17.365Z,35.92
2022-08-28T15:13:10.553Z,36.18
2022-08-28T15:16:15.501Z,36.15
2022-08-28T15:19:12.429Z,36.70
2022-08-28T15:22:05.357Z,36.80
2022-08-28T15:24:57.530Z,37.19
2022-08-28T15:27:49.761Z,37.51
2022-08-28T15:30:42.296Z,37.92
2022-08-28T15:33:34.436Z,38.44
2022-08-28T15:36:26.644Z,38.09
2022-08-28T15:39:37.722Z,38.53
2022-08-28T15:42:30.084Z,38.69
2022-08-28T15:45:22.982Z,38.35
2022-08-28T15:48:15.796Z,38.51
2022-08-28T15:51:08.241Z,38.62
2022-08-28T15:54:03.242Z,38.56
2022-08-28T15:56:55.918Z,38.59
2022-08-28T15:59:49.365Z,39.39
2022-08-28T16:02:42.819Z,40.12
2022-08-28T16:05:40.597Z,40.63
2022-08-28T16:08:33.302Z,40.94
2022-08-28T16:11:26.524Z,41.32
2022-08-28T16:14:21.068Z,41.80
2022-08-28T16:17:13.914Z,42.27
2022-08-28T16:20:12.883Z,42.63
2022-08-28T16:22:58.005Z,42.93
2022-08-28T16:25:50.339Z,43.31
2022-08-28T16:28:44.799Z,43.79
2022-08-28T16:31:37.173Z,44.71
2022-08-28T16:34:32.773Z,45.14
2022-08-28T16:37:20.822Z,45.69
2022-08-28T16:40:15.070Z,46.32
2022-08-28T16:43:07.929Z,46.68
2022-08-28T16:46:00.368Z,47.35
2022-08-28T16:48:54.788Z,47.77
2022-08-28T16:51:47.254Z,47.85
2022-08-28T16:54:39.540Z,48.45
2022-08-28T16:57:41.611Z,48.78
2022-08-28T17:00:34.091Z,49.00
2022-08-28T17:03:37.057Z,49.38
2022-08-28T17:06:33.368Z,49.75
2022-08-28T17:09:25.627Z,50.36
2022-08-28T17:12:20.401Z,50.90
2022-08-28T17:15:03.873Z,51.15
2022-08-28T17:17:56.991Z,51.70
2022-08-28T17:21:06.328Z,52.16
2022-08-28T17:24:00.155Z,52.49
2022-08-28T17:26:52.439Z,52.96
2022-08-28T17:29:44.925Z,53.31
2022-08-28T17:32:37.756Z,53.69
2022-08-28T17:35:30.018Z,53.85
2022-08-28T17:38:22.339Z,54.32
2022-08-28T17:41:14.700Z,54.76
2022-08-28T17:44:07.500Z,55.28
2022-08-28T17:46:59.703Z,55.85
2022-08-28T17:49:51.975Z,56.06
2022-08-28T17:52:44.225Z,56.29
2022-08-28T17:55:36.496Z,56.66
2022-08-28T17:58:28.632Z,57.60
2022-08-28T18:01:24.847Z,57.92
2022-08-28T18:04:23.961Z,58.27
2022-08-28T18:07:17.278Z,58.75
2022-08-28T18:10:11.895Z,59.33
2022-08-28T18:13:05.995Z,59.83
2022-08-28T18:15:58.509Z,60.22
2022-08-28T18:18:43.771Z,60.57
2022-08-28T18:21:36.380Z,60.92
2022-08-28T18:24:28.580Z,61.46
2022-08-28T18:27:26.624Z,61.67
2022-08-28T18:30:18.666Z,61.99
2022-08-28T18:33:27.075Z,62.17
2022-08-28T18:36:19.259Z,62.06
2022-08-28T18:39:11.427Z,62.68
2022-08-28T18:42:07.892Z,62.78
2022-08-28T18:45:00.214Z,63.01
2022-08-28T18:47:52.871Z,63.26
2022-08-28T18:50:46.607Z,63.59
2022-08-28T18:53:38.882Z,63.57
2022-08-28T18:56:37.138Z,63.73
2022-08-28T18:59:33.242Z,63.94
2022-08-28T19:02:25.534Z,64.02
2022-08-28T19:05:18.159Z,63.93
2022-08-28T19:08:10.641Z,63.70
2022-08-28T19:11:07.643Z,63.85
2022-08-28T19:14:04.044Z,64.18
2022-08-28T19:16:56.996Z,64.44
2022-08-28T19:19:52.621Z,64.85
2022-08-28T19:22:44.728Z,64.56
2022-08-28T19:25:37.703Z,64.86
2022-08-28T19:28:31.106Z,64.75
2022-08-28T19:31:24.260Z,65.12
2022-08-28T19:34:18.228Z,65.34
2022-08-28T19:37:10.479Z,65.30
2022-08-28T19:39:56.703Z,65.81
2022-08-28T19:42:50.196Z,66.26
2022-08-28T19:45:45.991Z,66.43
2022-08-28T19:48:39.150Z,66.68
2022-08-28T19:51:22.549Z,66.78
2022-08-28T19:54:16.175Z,67.41
2022-08-28T19:57:09.843Z,67.93
2022-08-28T20:00:02.577Z,68.99
2022-08-28T20:02:37.181Z,68.86
2022-08-28T20:05:29.604Z,69.40
2022-08-28T20:08:24.035Z,69.69
2022-08-28T20:11:24.802Z,69.92
2022-08-28T20:14:18.810Z,70.74
2022-08-28T20:17:11.145Z,70.96
2022-08-28T20:20:03.846Z,71.17
2022-08-28T20:22:58.554Z,71.36
2022-08-28T20:29:24.478Z,71.60
2022-08-28T20:32:17.901Z,72.20
2022-08-28T20:35:13.407Z,72.50
2022-08-28T20:38:05.860Z,73.04
2022-08-28T20:40:38.462Z,72.74
2022-08-28T20:43:30.916Z,73.20
2022-08-28T20:46:23.457Z,73.57
2022-08-28T20:49:17.248Z,73.68
2022-08-28T20:52:09.836Z,73.86
2022-08-28T20:55:02.029Z,74.16
2022-08-28T20:57:54.328Z,74.56
2022-08-28T21:00:47.476Z,74.16
2022-08-28T21:03:41.056Z,74.19
2022-08-28T21:06:33.294Z,74.32
2022-08-28T21:09:43.962Z,74.25
2022-08-28T21:12:38.927Z,74.46
2022-08-28T21:15:31.623Z,74.30
2022-08-28T21:18:23.854Z,74.34
2022-08-28T21:21:16.724Z,74.56
2022-08-28T21:24:15.489Z,74.53
2022-08-28T21:27:09.552Z,74.75
2022-08-28T21:29:44.686Z,74.59
2022-08-28T21:32:38.154Z,74.99
2022-08-28T21:35:30.320Z,75.10
2022-08-28T21:38:22.635Z,75.28
2022-08-28T21:41:16.606Z,75.45
2022-08-28T21:44:09.556Z,75.38
2022-08-28T21:47:03.082Z,75.58
2022-08-28T21:49:57.410Z,75.72
2022-08-28T21:52:49.759Z,75.43
2022-08-28T21:55:49.462Z,75.50
2022-08-28T21:58:41.643Z,75.41
2022-08-28T22:01:35.781Z,75.80
2022-08-28T22:04:27.961Z,75.80
2022-08-28T22:07:20.905Z,76.02
2022-08-28T22:10:14.160Z,76.12
2022-08-28T22:13:06.876Z,76.16
2022-08-28T22:15:59.520Z,76.69
2022-08-28T22:18:52.242Z,76.71
2022-08-28T22:22:01.857Z,77.20
2022-08-28T22:24:56.686Z,77.48
2022-08-28T22:27:48.951Z,77.28
2022-08-28T22:30:41.226Z,77.34
2022-08-28T22:33:28.828Z,77.80
2022-08-28T22:36:21.081Z,78.04
2022-08-28T22:39:13.594Z,77.93
2022-08-28T22:42:05.867Z,78.22
2022-08-28T22:45:00.219Z,78.22
2022-08-28T22:47:54.206Z,78.41
2022-08-28T22:50:40.084Z,78.23
2022-08-28T22:53:32.221Z,78.16
2022-08-28T22:56:24.909Z,78.01
2022-08-28T22:59:17.117Z,78.07
2022-08-28T23:02:09.416Z,78.34
2022-08-28T23:05:01.708Z,78.67
2022-08-28T23:07:54.020Z,78.60
2022-08-28T23:10:59.107Z,78.89
2022-08-28T23:13:51.907Z,78.65
2022-08-28T23:16:44.262Z,78.42
2022-08-28T23:19:36.702Z,78.26
2022-08-28T23:22:29.038Z,78.72
2022-08-28T23:25:24.800Z,78.55
2022-08-28T23:28:17.074Z,78.46
2022-08-28T23:31:10.392Z,78.25
2022-08-28T23:34:02.609Z,78.36
2022-08-28T23:36:58.108Z,78.09
2022-08-28T23:39:50.868Z,77.73
2022-08-28T23:42:44.311Z,77.92
2022-08-28T23:45:39.565Z,77.66
2022-08-28T23:48:32.338Z,77.69
2022-08-28T23:51:24.446Z,77.66
2022-08-28T23:54:17.503Z,77.57
2022-08-28T23:57:11.049Z,77.53
